Time;durP1;ratioP1;P1;durP2;ratioP2;P2;SDS_P1;SDS_P2;PMS_P1;PMS_P2;Temp;Humidity;BMP_temperature;BMP_pressure;BME280_temperature;BME280_humidity;BME280_pressure;Samples;Min_cycle;Max_cycle;Signal;HPM_P1;HPM_P2
2022/05/18 14:45:17;;;;;;;6.28;2.58;;;;;;;;;;5067526;28;20922;-73
2022/05/18 14:47:47;;;;;;;6.38;2.42;;;;;;;;;;5072291;28;20506;-78
2022/05/18 14:50:21;;;;;;;7.60;2.17;;;;;;;;;;5069802;28;20028;-80
2022/05/18 14:53:14;;;;;;;7.32;2.38;;;;;;;;;;5069608;28;20024;-75
2022/05/18 14:56:01;;;;;;;5.38;2.30;;;;;;;;;;5058025;28;20029;-76
2022/05/18 14:58:30;;;;;;;5.32;2.22;;;;;;;;;;5049381;28;20029;-75
2022/05/18 15:01:00;;;;;;;7.05;2.35;;;;;;;;;;5050666;28;20033;-75
2022/05/18 15:03:27;;;;;;;;;;;;;;;;;;5050795;28;20029;-73
2022/05/18 15:05:55;;;;;;;6.80;2.20;;;;;;;;;;5047271;28;20402;-76
2022/05/18 15:08:29;;;;;;;5.60;2.30;;;;;;;;;;5046833;28;20472;-76
2022/05/18 15:11:00;;;;;;;7.10;2.30;;;;;;;;;;5054988;28;20040;-75
2022/05/18 15:13:30;;;;;;;7.25;2.05;;;;;;;;;;5054252;28;20033;-75
2022/05/18 15:15:58;;;;;;;6.20;2.10;;;;;;;;;;5054508;28;20062;-75
2022/05/18 15:18:34;;;;;;;6.80;2.38;;;;;;;;;;5051045;28;20088;-75
2022/05/18 15:21:28;;;;;;;9.13;2.30;;;;;;;;;;5058113;28;20025;-73
2022/05/18 15:24:09;;;;;;;5.93;2.20;;;;;;;;;;5056784;28;20215;-74
2022/05/18 15:26:46;;;;;;;8.38;2.10;;;;;;;;;;5055627;28;20029;-75
2022/05/18 15:29:35;;;;;;;6.63;2.35;;;;;;;;;;5052199;28;20037;-74
2022/05/18 15:32:01;;;;;;;5.23;2.07;;;;;;;;;;5053573;28;20071;-74
2022/05/18 15:34:36;;;;;;;7.75;2.25;;;;;;;;;;5052841;28;20023;-77
2022/05/18 15:37:03;;;;;;;7.25;2.40;;;;;;;;;;5057635;28;20027;-76
2022/05/18 15:39:28;;;;;;;5.53;2.03;;;;;;;;;;5056209;28;20033;-76
2022/05/18 15:41:54;;;;;;;6.57;2.20;;;;;;;;;;5057096;28;20033;-76
2022/05/18 15:44:20;;;;;;;6.20;2.10;;;;;;;;;;5055062;28;20217;-76
2022/05/18 15:46:54;;;;;;;9.00;2.30;;;;;;;;;;5057480;28;20040;-75
2022/05/18 15:49:30;;;;;;;5.40;2.17;;;;;;;;;;5054755;28;20021;-76
2022/05/18 15:52:07;;;;;;;14.63;2.35;;;;;;;;;;5047087;28;20104;-75
2022/05/18 15:54:39;;;;;;;8.32;2.20;;;;;;;;;;5053960;28;20037;-75
2022/05/18 15:57:05;;;;;;;5.82;2.35;;;;;;;;;;5043920;28;20081;-74
2022/05/18 15:59:31;;;;;;;7.03;2.33;;;;;;;;;;5039375;28;20083;-75
2022/05/18 16:01:56;;;;;;;7.47;2.20;;;;;;;;;;5040987;28;20029;-76
2022/05/18 16:04:21;;;;;;;10.88;2.10;;;;;;;;;;5032730;28;20499;-76
2022/05/18 16:06:47;;;;;;;7.53;2.30;;;;;;;;;;5032155;28;20021;-77
2022/05/18 16:09:14;;;;;;;6.65;2.38;;;;;;;;;;5030991;28;20030;-79
2022/05/18 16:11:40;;;;;;;10.93;2.17;;;;;;;;;;5030792;28;20052;-76
2022/05/18 16:14:06;;;;;;;10.07;2.30;;;;;;;;;;5030719;28;20053;-75
2022/05/18 16:16:36;;;;;;;7.93;2.50;;;;;;;;;;5030667;28;20061;-75
2022/05/18 16:19:01;;;;;;;10.00;2.30;;;;;;;;;;5030546;28;20055;-76
2022/05/18 16:21:32;;;;;;;7.97;2.25;;;;;;;;;;5030466;28;20029;-78
2022/05/18 16:24:07;;;;;;;8.50;2.40;;;;;;;;;;5032063;28;20037;-78
2022/05/18 16:26:35;;;;;;;12.23;2.40;;;;;;;;;;5032484;28;20099;-78
2022/05/18 16:29:04;;;;;;;9.05;2.17;;;;;;;;;;5033637;28;20036;-87
2022/05/18 16:31:29;;;;;;;6.00;2.20;;;;;;;;;;5033563;28;20449;-78
2022/05/18 16:33:55;;;;;;;6.38;2.20;;;;;;;;;;5031939;28;20120;-82
2022/05/18 16:36:20;;;;;;;7.40;2.38;;;;;;;;;;5038025;28;20072;-79
2022/05/18 16:38:46;;;;;;;7.43;2.28;;;;;;;;;;5035445;28;20017;-82
2022/05/18 16:41:22;;;;;;;6.53;2.20;;;;;;;;;;5033403;28;20025;-81
2022/05/18 16:43:47;;;;;;;9.02;2.53;;;;;;;;;;5034131;28;20052;-80
2022/05/18 16:46:19;;;;;;;8.38;2.22;;;;;;;;;;5035483;28;20033;-84
2022/05/18 16:48:44;;;;;;;6.57;2.22;;;;;;;;;;5031899;28;20030;-83
2022/05/18 16:51:10;;;;;;;7.32;2.20;;;;;;;;;;5031938;28;20059;-79
2022/05/18 16:53:35;;;;;;;5.97;2.20;;;;;;;;;;5031529;28;20029;-82
2022/05/18 16:56:01;;;;;;;9.75;2.40;;;;;;;;;;5031674;28;20025;-78
2022/05/18 16:58:29;;;;;;;9.98;2.20;;;;;;;;;;5031967;28;20013;-76
2022/05/18 17:00:55;;;;;;;9.10;2.40;;;;;;;;;;5031565;28;20056;-83
2022/05/18 17:03:25;;;;;;;13.02;2.25;;;;;;;;;;5031823;28;20064;-83
2022/05/18 17:05:57;;;;;;;13.63;2.58;;;;;;;;;;5031432;28;20084;-83
2022/05/18 17:11:10;;;;;;;6.40;2.00;;;;;;;;;;5041085;28;20052;-79
2022/05/18 17:13:36;;;;;;;6.38;2.25;;;;;;;;;;5036717;28;20068;-79
2022/05/18 17:16:04;;;;;;;12.90;2.60;;;;;;;;;;5035722;28;20071;-80
2022/05/18 17:18:30;;;;;;;5.47;2.15;;;;;;;;;;5032392;28;20040;-76
2022/05/18 17:20:56;;;;;;;6.97;2.30;;;;;;;;;;5032516;28;20021;-75
2022/05/18 17:23:22;;;;;;;6.43;2.08;;;;;;;;;;5031111;28;20041;-75
2022/05/18 17:25:48;;;;;;;8.57;2.33;;;;;;;;;;5030781;28;20037;-76
2022/05/18 17:28:16;;;;;;;6.95;2.20;;;;;;;;;;5030332;28;20029;-76
2022/05/18 17:30:45;;;;;;;8.68;2.28;;;;;;;;;;5030506;28;20025;-75
2022/05/18 17:33:11;;;;;;;10.18;2.63;;;;;;;;;;5030930;28;20032;-74
2022/05/18 17:35:39;;;;;;;7.78;2.40;;;;;;;;;;5030669;28;20034;-75
2022/05/18 17:38:04;;;;;;;9.13;2.88;;;;;;;;;;5030872;28;20024;-74
2022/05/18 17:40:31;;;;;;;7.47;2.80;;;;;;;;;;5030543;28;20029;-75
2022/05/18 17:42:56;;;;;;;7.43;2.30;;;;;;;;;;5030712;28;20503;-73
2022/05/18 17:45:22;;;;;;;5.57;2.53;;;;;;;;;;5030414;28;20308;-74
2022/05/18 17:47:48;;;;;;;8.63;2.85;;;;;;;;;;5029294;28;20021;-74
2022/05/18 17:50:15;;;;;;;6.97;2.40;;;;;;;;;;5030495;28;20108;-75
2022/05/18 17:52:42;;;;;;;6.93;2.25;;;;;;;;;;5030484;28;20021;-75
2022/05/18 17:55:09;;;;;;;6.72;2.42;;;;;;;;;;5030574;28;20029;-76
2022/05/18 17:57:35;;;;;;;7.70;2.40;;;;;;;;;;5030797;28;20483;-76
2022/05/18 18:00:02;;;;;;;7.30;2.20;;;;;;;;;;5030432;28;20029;-75
2022/05/18 18:02:34;;;;;;;5.90;2.25;;;;;;;;;;5030743;28;20025;-75
2022/05/18 18:05:02;;;;;;;8.30;2.17;;;;;;;;;;5030201;28;20021;-75
2022/05/18 18:07:29;;;;;;;4.28;1.92;;;;;;;;;;5030471;28;20144;-74
2022/05/18 18:09:56;;;;;;;9.93;2.30;;;;;;;;;;5029916;28;20327;-76
2022/05/18 18:12:21;;;;;;;5.63;2.13;;;;;;;;;;5030604;28;20342;-75
2022/05/18 18:14:47;;;;;;;8.38;2.10;;;;;;;;;;5030123;28;20120;-73
2022/05/18 18:17:15;;;;;;;10.90;2.40;;;;;;;;;;5030131;28;20044;-75
2022/05/18 18:19:44;;;;;;;6.60;2.10;;;;;;;;;;5029846;28;20022;-75
2022/05/18 18:22:11;;;;;;;6.13;2.30;;;;;;;;;;5030296;28;20107;-74
2022/05/18 18:24:37;;;;;;;7.40;2.40;;;;;;;;;;5028946;28;20040;-76
2022/05/18 18:27:03;;;;;;;5.93;2.30;;;;;;;;;;5030221;28;20026;-74
2022/05/18 18:29:28;;;;;;;4.47;2.30;;;;;;;;;;5029862;28;20033;-72
2022/05/18 18:31:54;;;;;;;5.55;2.45;;;;;;;;;;5028983;28;20041;-76
2022/05/18 18:34:19;;;;;;;6.57;2.83;;;;;;;;;;5030029;28;20484;-75
2022/05/18 18:36:46;;;;;;;7.78;2.60;;;;;;;;;;5029912;28;20036;-77
2022/05/18 18:39:21;;;;;;;7.50;2.50;;;;;;;;;;5030206;28;20144;-78
2022/05/18 18:41:46;;;;;;;8.77;2.30;;;;;;;;;;5029907;28;20084;-76
2022/05/18 18:44:13;;;;;;;7.45;2.20;;;;;;;;;;5029812;28;20049;-73
2022/05/18 18:46:38;;;;;;;10.15;2.80;;;;;;;;;;5030482;28;20017;-71
2022/05/18 18:49:06;;;;;;;6.53;2.42;;;;;;;;;;5030289;28;20074;-72
2022/05/18 18:57:09;;;;;;;8.80;2.42;;;;;;;;;;5029840;28;20115;-75
2022/05/18 18:59:35;;;;;;;8.95;2.58;;;;;;;;;;5030083;28;20030;-77
2022/05/18 19:02:01;;;;;;;6.40;2.40;;;;;;;;;;5029830;28;20107;-75
2022/05/18 19:04:26;;;;;;;9.93;2.80;;;;;;;;;;5029831;28;20068;-74
2022/05/18 19:06:58;;;;;;;5.65;2.30;;;;;;;;;;5029900;28;20365;-73
2022/05/18 19:09:27;;;;;;;5.95;2.72;;;;;;;;;;5029446;28;20072;-74
2022/05/18 19:11:54;;;;;;;8.10;2.67;;;;;;;;;;5029596;28;20436;-69
2022/05/18 19:14:20;;;;;;;8.95;2.50;;;;;;;;;;5029435;28;20288;-76
2022/05/18 19:16:45;;;;;;;9.77;2.50;;;;;;;;;;5029478;28;20105;-77
2022/05/18 19:19:11;;;;;;;7.97;2.50;;;;;;;;;;5029711;28;20101;-73
2022/05/18 19:21:36;;;;;;;6.30;2.20;;;;;;;;;;5029479;28;20017;-76
2022/05/18 19:24:04;;;;;;;7.85;2.45;;;;;;;;;;5029790;28;20026;-77
2022/05/18 19:26:30;;;;;;;10.10;2.63;;;;;;;;;;5029517;28;20052;-76
2022/05/18 19:29:00;;;;;;;6.35;2.70;;;;;;;;;;5029727;28;20029;-76
2022/05/18 19:31:26;;;;;;;;;;;;;;;;;;5032766;28;20108;-75
2022/05/18 19:33:51;;;;;;;7.00;2.70;;;;;;;;;;5031853;28;20003;-75
2022/05/18 19:36:17;;;;;;;8.48;2.67;;;;;;;;;;5033159;28;20075;-77
2022/05/18 19:38:42;;;;;;;10.48;2.53;;;;;;;;;;5033292;28;20118;-76
2022/05/18 19:41:10;;;;;;;8.57;2.50;;;;;;;;;;5033288;28;20029;-77
2022/05/18 19:43:39;;;;;;;8.25;2.88;;;;;;;;;;5032894;28;20561;-77
2022/05/18 19:46:05;;;;;;;6.72;2.70;;;;;;;;;;5033014;28;20025;-74
2022/05/18 19:48:31;;;;;;;8.63;2.65;;;;;;;;;;5032837;28;20029;-75
2022/05/18 19:50:58;;;;;;;6.63;2.50;;;;;;;;;;5039532;28;20316;-75
2022/05/18 19:53:24;;;;;;;8.10;3.00;;;;;;;;;;5039832;28;20079;-76
2022/05/18 19:55:50;;;;;;;7.80;2.63;;;;;;;;;;5038061;28;20056;-76
2022/05/18 19:58:23;;;;;;;7.78;2.75;;;;;;;;;;5032970;28;20065;-77
2022/05/18 20:00:48;;;;;;;7.25;2.53;;;;;;;;;;5032832;28;20029;-74
2022/05/18 20:03:14;;;;;;;9.95;2.88;;;;;;;;;;5032823;28;20040;-69
2022/05/18 20:05:39;;;;;;;9.35;2.70;;;;;;;;;;5032636;28;20037;-73
2022/05/18 20:08:05;;;;;;;9.80;2.70;;;;;;;;;;5032577;28;20029;-71
2022/05/18 20:10:33;;;;;;;8.05;2.90;;;;;;;;;;5032299;28;20360;-72
2022/05/18 20:12:58;;;;;;;5.47;2.60;;;;;;;;;;5032441;28;20033;-71
2022/05/18 20:15:27;;;;;;;7.03;3.20;;;;;;;;;;5032601;28;20027;-71
2022/05/18 20:17:56;;;;;;;6.05;2.47;;;;;;;;;;5032725;28;20370;-71
2022/05/18 20:20:29;;;;;;;9.45;2.72;;;;;;;;;;5032226;28;20719;-71
2022/05/18 20:22:54;;;;;;;7.50;2.70;;;;;;;;;;5032515;28;20489;-70
2022/05/18 20:25:20;;;;;;;7.93;2.47;;;;;;;;;;5032401;28;20106;-72
2022/05/18 20:28:07;;;;;;;6.82;2.72;;;;;;;;;;5032192;28;20037;-71
2022/05/18 20:30:32;;;;;;;8.85;2.75;;;;;;;;;;5032178;28;20053;-73
2022/05/18 20:32:58;;;;;;;7.05;2.45;;;;;;;;;;5032521;28;20026;-72
2022/05/18 20:35:23;;;;;;;7.43;2.55;;;;;;;;;;5032367;28;20075;-71
2022/05/18 20:37:49;;;;;;;6.25;2.70;;;;;;;;;;5031860;28;20038;-71
2022/05/18 20:40:16;;;;;;;6.00;2.63;;;;;;;;;;5021732;28;20048;-71
2022/05/18 20:42:44;;;;;;;7.55;2.70;;;;;;;;;;5029172;28;20596;-71
2022/05/18 20:45:13;;;;;;;5.60;2.80;;;;;;;;;;5012248;28;20091;-72
2022/05/18 20:47:39;;;;;;;5.90;2.70;;;;;;;;;;5014564;28;20028;-71
2022/05/18 20:50:07;;;;;;;7.82;2.80;;;;;;;;;;5030119;28;20248;-71
2022/05/18 20:52:33;;;;;;;5.75;2.35;;;;;;;;;;5030126;28;20485;-70
2022/05/18 20:54:58;;;;;;;6.68;2.90;;;;;;;;;;5032811;28;20040;-71
2022/05/18 20:57:26;;;;;;;9.93;3.03;;;;;;;;;;5018365;28;20026;-72
2022/05/18 20:59:54;;;;;;;7.15;2.80;;;;;;;;;;5012061;28;20036;-71
2022/05/18 21:02:20;;;;;;;7.43;2.90;;;;;;;;;;5015023;28;20085;-72
2022/05/18 21:04:46;;;;;;;8.43;2.70;;;;;;;;;;5017370;28;20030;-71
2022/05/18 21:07:11;;;;;;;7.90;2.70;;;;;;;;;;5011829;28;20029;-71
2022/05/18 21:09:37;;;;;;;8.18;2.85;;;;;;;;;;5012053;28;20493;-72
2022/05/18 21:12:08;;;;;;;7.78;2.67;;;;;;;;;;5015557;28;20097;-72
2022/05/18 21:14:36;;;;;;;10.60;3.13;;;;;;;;;;5031989;28;20037;-72
2022/05/18 21:17:03;;;;;;;12.57;3.00;;;;;;;;;;5039856;28;20032;-72
2022/05/18 21:19:28;;;;;;;6.55;2.92;;;;;;;;;;5042661;28;20014;-72
2022/05/18 21:21:54;;;;;;;9.77;3.38;;;;;;;;;;5041923;28;20227;-71
2022/05/18 21:24:19;;;;;;;9.32;3.40;;;;;;;;;;5032514;28;20053;-71
2022/05/18 21:26:46;;;;;;;9.48;3.40;;;;;;;;;;5030163;28;20503;-71
2022/05/18 21:29:18;;;;;;;10.65;3.63;;;;;;;;;;5029855;28;20037;-71
2022/05/18 21:31:47;;;;;;;8.27;3.30;;;;;;;;;;5030877;28;20022;-71
2022/05/18 21:34:13;;;;;;;8.48;3.40;;;;;;;;;;5030778;28;20030;-71
2022/05/18 21:36:39;;;;;;;13.50;3.60;;;;;;;;;;5030838;28;20017;-70
2022/05/18 21:39:05;;;;;;;9.82;3.55;;;;;;;;;;5029584;28;20022;-70
2022/05/18 21:41:31;;;;;;;9.38;3.50;;;;;;;;;;5030835;28;20472;-71
2022/05/18 21:43:58;;;;;;;9.57;3.63;;;;;;;;;;5030869;28;20049;-70
2022/05/18 21:46:29;;;;;;;11.35;3.70;;;;;;;;;;5030499;28;20033;-70
2022/05/18 21:48:55;;;;;;;12.85;3.55;;;;;;;;;;5030561;28;20066;-71
2022/05/18 21:51:21;;;;;;;8.07;3.50;;;;;;;;;;5030046;28;20029;-69
2022/05/18 21:53:47;;;;;;;13.18;4.00;;;;;;;;;;5029958;28;20468;-71
2022/05/18 21:56:16;;;;;;;9.27;3.70;;;;;;;;;;5030558;28;20029;-71
2022/05/18 21:58:42;;;;;;;7.38;3.40;;;;;;;;;;5030607;28;20103;-71
2022/05/18 22:01:08;;;;;;;9.05;3.55;;;;;;;;;;5030224;28;20045;-70
2022/05/18 22:03:36;;;;;;;9.88;4.00;;;;;;;;;;5030440;28;20049;-70
2022/05/18 22:06:03;;;;;;;13.73;3.70;;;;;;;;;;5030080;28;20044;-70
2022/05/18 22:08:29;;;;;;;8.85;3.40;;;;;;;;;;5028858;28;20034;-70
2022/05/18 22:10:55;;;;;;;11.82;3.83;;;;;;;;;;5029804;28;20029;-70
2022/05/18 22:13:21;;;;;;;6.13;3.35;;;;;;;;;;5030097;28;20083;-71
2022/05/18 22:15:47;;;;;;;7.40;3.70;;;;;;;;;;5030434;28;20029;-70
2022/05/18 22:18:13;;;;;;;9.93;4.07;;;;;;;;;;5030239;28;20396;-70
2022/05/18 22:20:40;;;;;;;12.20;4.03;;;;;;;;;;5030006;28;20500;-70
2022/05/18 22:23:06;;;;;;;13.75;3.92;;;;;;;;;;5029856;28;20494;-70
2022/05/18 22:25:32;;;;;;;9.68;3.72;;;;;;;;;;5030268;28;20382;-70
2022/05/18 22:28:00;;;;;;;11.52;4.05;;;;;;;;;;5029940;28;20030;-70
2022/05/18 22:30:26;;;;;;;11.77;3.78;;;;;;;;;;5029852;28;20025;-69
2022/05/18 22:32:51;;;;;;;11.23;4.07;;;;;;;;;;5029862;28;20029;-70
2022/05/18 22:35:17;;;;;;;13.00;4.20;;;;;;;;;;5030014;28;20035;-69
2022/05/18 22:37:43;;;;;;;8.48;3.88;;;;;;;;;;5029924;28;20393;-70
2022/05/18 22:40:10;;;;;;;9.45;4.07;;;;;;;;;;5029842;28;20034;-71
2022/05/18 22:42:36;;;;;;;8.57;3.70;;;;;;;;;;5029521;28;20538;-70
2022/05/18 22:45:11;;;;;;;13.63;4.50;;;;;;;;;;5029613;28;20483;-70
2022/05/18 22:47:39;;;;;;;11.75;4.53;;;;;;;;;;5029662;28;20096;-70
2022/05/18 22:50:22;;;;;;;8.75;4.05;;;;;;;;;;5029627;28;20028;-70
2022/05/18 22:52:48;;;;;;;11.68;4.20;;;;;;;;;;5029628;28;20463;-70
2022/05/18 22:55:14;;;;;;;9.73;3.95;;;;;;;;;;5029623;28;20109;-70
2022/05/18 22:57:39;;;;;;;7.72;3.95;;;;;;;;;;5029478;28;20503;-70
2022/05/18 23:00:07;;;;;;;7.90;3.95;;;;;;;;;;5029778;28;20030;-70
2022/05/18 23:02:33;;;;;;;8.63;3.92;;;;;;;;;;5029568;28;20022;-70
2022/05/18 23:04:59;;;;;;;11.70;4.55;;;;;;;;;;5030475;28;20070;-70
2022/05/18 23:07:24;;;;;;;9.27;4.38;;;;;;;;;;5033567;28;20025;-70
2022/05/18 23:09:50;;;;;;;11.95;4.53;;;;;;;;;;5034034;28;20025;-70
2022/05/18 23:12:15;;;;;;;11.32;4.60;;;;;;;;;;5033200;28;20025;-71
2022/05/18 23:14:41;;;;;;;14.27;4.55;;;;;;;;;;5033317;28;20044;-70
2022/05/18 23:17:09;;;;;;;9.90;4.22;;;;;;;;;;5033296;28;20017;-70
2022/05/18 23:19:35;;;;;;;8.73;4.32;;;;;;;;;;5033851;28;20026;-70
2022/05/18 23:22:01;;;;;;;12.68;4.45;;;;;;;;;;5033031;28;20095;-70
2022/05/18 23:24:27;;;;;;;11.55;4.38;;;;;;;;;;5033812;28;20029;-71
2022/05/18 23:26:52;;;;;;;10.98;4.07;;;;;;;;;;5033430;28;20126;-70
2022/05/18 23:29:18;;;;;;;8.50;4.03;;;;;;;;;;5032977;28;20029;-70
2022/05/18 23:31:52;;;;;;;12.80;4.03;;;;;;;;;;5032855;28;20029;-70
2022/05/18 23:34:24;;;;;;;10.13;4.40;;;;;;;;;;5032799;28;20030;-70
2022/05/18 23:36:49;;;;;;;9.80;4.30;;;;;;;;;;5033052;28;20484;-70
2022/05/18 23:39:15;;;;;;;9.73;4.80;;;;;;;;;;5032868;28;20025;-70
2022/05/18 23:41:40;;;;;;;8.25;4.57;;;;;;;;;;5032879;28;20029;-70
2022/05/18 23:44:05;;;;;;;10.20;4.35;;;;;;;;;;5033031;28;20049;-69
2022/05/18 23:46:35;;;;;;;8.60;4.30;;;;;;;;;;5033014;28;20025;-70
2022/05/18 23:49:04;;;;;;;9.93;4.43;;;;;;;;;;5032786;28;20056;-71
2022/05/18 23:51:30;;;;;;;9.75;4.00;;;;;;;;;;5032465;28;20495;-71
2022/05/18 23:54:03;;;;;;;10.20;3.97;;;;;;;;;;5032650;28;20101;-70
2022/05/18 23:56:37;;;;;;;10.05;4.05;;;;;;;;;;5032743;28;20025;-70
2022/05/18 23:59:18;;;;;;;10.60;4.30;;;;;;;;;;5033046;28;20025;-70
